Cumby, Texas
Current Conditions -  °F | °C
As of 4:15 PM on Thursday 27 Nov 2014 (Local Time) from KSLR Reporting Station
Clear Clear  
Wind Chill: 58°   Ceiling: Unl
Heat Index: 58°   Visibility: 10mi
Dew Point: 16°   Wind: 3mph
Humidity: 19%   Direction: 110°ESE
Pressure: 30.45"   Gusts: NA
Location:  33.14°N, 95.84°W
Report Text: KSLR 272215Z AUTO 11003KT 10SM CLR 15/M09 A3045 RMK AO2 T01461089
Loading
Personal Weather Stations






























Interactive Weather Map New forecast layout! Learn more

10-Day Weather Forecast

Advertisements
Track Severe Weather on mobile